createdAt,value
2022-10-02T00:01:20.916Z,76.91
2022-10-02T00:03:54.455Z,76.81
2022-10-02T00:06:24.756Z,76.60
2022-10-02T00:09:01.217Z,75.97
2022-10-02T00:11:40.697Z,76.90
2022-10-02T00:14:13.185Z,77.36
2022-10-02T00:16:43.604Z,78.13
2022-10-02T00:19:13.224Z,78.24
2022-10-02T00:21:50.693Z,78.07
2022-10-02T00:24:27.171Z,78.07
2022-10-02T00:27:00.430Z,78.50
2022-10-02T00:29:39.522Z,78.49
2022-10-02T00:32:19.251Z,78.92
2022-10-02T00:34:59.808Z,79.51
2022-10-02T00:37:38.713Z,79.55
2022-10-02T00:40:26.552Z,79.78
2022-10-02T00:43:06.103Z,79.50
2022-10-02T00:46:18.501Z,79.87
2022-10-02T00:48:56.890Z,79.42
2022-10-02T00:51:38.420Z,79.85
2022-10-02T00:54:27.091Z,79.75
2022-10-02T00:57:08.854Z,80.20
2022-10-02T00:59:50.351Z,80.16
2022-10-02T01:03:00.189Z,80.46
2022-10-02T01:05:29.362Z,80.03
2022-10-02T01:07:57.750Z,79.80
2022-10-02T01:10:26.789Z,80.12
2022-10-02T01:12:59.405Z,80.18
2022-10-02T01:15:33.340Z,80.24
2022-10-02T01:18:03.113Z,80.28
2022-10-02T01:20:36.690Z,80.45
2022-10-02T01:23:29.468Z,80.67
2022-10-02T01:25:59.480Z,80.90
2022-10-02T01:28:28.345Z,81.02
2022-10-02T01:31:02.551Z,80.92
2022-10-02T01:33:33.627Z,80.93
2022-10-02T01:36:02.275Z,80.90
2022-10-02T01:38:31.479Z,80.56
2022-10-02T01:41:00.864Z,80.85
2022-10-02T01:43:33.468Z,80.74
2022-10-02T01:46:15.628Z,81.02
2022-10-02T01:48:47.720Z,81.02
2022-10-02T01:51:39.011Z,81.32
2022-10-02T01:54:19.233Z,81.43
2022-10-02T01:56:56.757Z,81.60
2022-10-02T01:59:34.903Z,81.85
2022-10-02T02:02:13.671Z,81.82
2022-10-02T02:04:47.519Z,81.60
2022-10-02T02:07:26.090Z,81.46
2022-10-02T02:10:00.466Z,81.44
2022-10-02T02:12:39.429Z,81.44
2022-10-02T02:15:14.545Z,81.81
2022-10-02T02:17:50.827Z,81.00
2022-10-02T02:20:43.907Z,81.63
2022-10-02T02:23:39.215Z,81.17
2022-10-02T02:26:37.978Z,81.49
2022-10-02T02:29:09.747Z,81.47
2022-10-02T02:31:43.032Z,81.57
2022-10-02T02:34:15.693Z,81.23
2022-10-02T02:36:47.583Z,81.59
2022-10-02T02:39:19.554Z,81.49
2022-10-02T02:41:59.185Z,81.57
2022-10-02T02:44:36.221Z,81.46
2022-10-02T02:47:09.052Z,81.31
2022-10-02T02:49:45.799Z,81.34
2022-10-02T02:53:09.128Z,81.85
2022-10-02T02:55:44.929Z,81.70
2022-10-02T02:58:19.212Z,81.85
2022-10-02T03:00:48.685Z,81.61
2022-10-02T03:03:20.274Z,81.53
2022-10-02T03:06:26.287Z,82.11
2022-10-02T03:08:59.451Z,81.58
2022-10-02T03:11:40.331Z,81.76
2022-10-02T03:14:27.183Z,81.95
2022-10-02T03:17:06.638Z,82.05
2022-10-02T03:19:45.266Z,82.19
2022-10-02T03:22:29.298Z,82.37
2022-10-02T03:25:27.306Z,82.05
2022-10-02T03:28:03.474Z,82.90
2022-10-02T03:30:34.215Z,82.67
2022-10-02T03:33:05.099Z,82.54
2022-10-02T03:35:34.072Z,83.33
2022-10-02T03:38:06.163Z,82.62
2022-10-02T03:40:34.854Z,82.83
2022-10-02T03:43:04.743Z,82.82
2022-10-02T03:45:50.538Z,82.74
2022-10-02T03:48:21.111Z,83.18
2022-10-02T03:50:51.241Z,83.10
2022-10-02T03:53:25.951Z,83.32
2022-10-02T03:55:56.676Z,82.94
2022-10-02T03:58:26.500Z,83.27
2022-10-02T04:01:00.010Z,83.45
2022-10-02T04:03:35.795Z,83.16
2022-10-02T04:06:05.559Z,83.22
2022-10-02T04:08:37.326Z,83.38
2022-10-02T04:11:11.173Z,83.63
2022-10-02T04:13:42.641Z,83.48
2022-10-02T04:16:16.669Z,83.77
2022-10-02T04:18:55.589Z,83.54
2022-10-02T04:21:34.465Z,83.52
2022-10-02T04:24:11.083Z,83.63
2022-10-02T04:26:45.204Z,84.16
2022-10-02T04:29:18.913Z,83.84
2022-10-02T04:31:52.019Z,83.72
2022-10-02T04:34:21.483Z,83.81
2022-10-02T04:37:09.170Z,84.15
2022-10-02T04:39:51.997Z,84.25
2022-10-02T04:42:29.819Z,84.17
2022-10-02T04:45:11.067Z,84.25
2022-10-02T04:48:24.942Z,83.79
2022-10-02T04:51:03.251Z,84.83
2022-10-02T04:53:46.866Z,85.15
2022-10-02T04:56:44.301Z,84.46
2022-10-02T04:59:31.184Z,83.95
2022-10-02T05:02:08.183Z,84.27
2022-10-02T05:05:16.185Z,84.78
2022-10-02T05:08:15.275Z,84.15
2022-10-02T05:10:58.174Z,83.49
2022-10-02T05:13:46.913Z,82.93
2022-10-02T05:16:27.358Z,81.78
2022-10-02T05:19:22.114Z,82.79
2022-10-02T05:22:19.857Z,83.16
2022-10-02T05:25:05.393Z,81.22
2022-10-02T05:27:49.780Z,81.81
2022-10-02T05:30:19.052Z,82.01
2022-10-02T05:33:17.516Z,81.93
2022-10-02T05:36:01.538Z,82.95
2022-10-02T05:38:54.467Z,80.97
2022-10-02T05:41:32.283Z,81.72
2022-10-02T05:44:07.486Z,81.50
2022-10-02T05:46:41.562Z,81.18
2022-10-02T05:49:17.695Z,81.55
2022-10-02T05:51:53.722Z,80.81
2022-10-02T05:54:30.227Z,80.74
2022-10-02T05:57:08.559Z,81.66
2022-10-02T05:59:42.713Z,82.07
2022-10-02T06:02:21.253Z,81.82
2022-10-02T06:04:56.236Z,82.67
2022-10-02T06:07:52.491Z,82.47
2022-10-02T06:10:28.956Z,81.76
2022-10-02T06:13:03.366Z,80.07
2022-10-02T06:15:44.134Z,81.39
2022-10-02T06:18:18.569Z,80.92
2022-10-02T06:20:52.958Z,81.46
2022-10-02T06:23:25.334Z,80.88
2022-10-02T06:25:56.755Z,80.29
2022-10-02T06:28:30.498Z,78.62
2022-10-02T06:31:04.498Z,79.37
2022-10-02T06:33:34.529Z,78.34
2022-10-02T06:36:32.369Z,77.23
2022-10-02T06:39:15.515Z,76.60
2022-10-02T06:41:54.302Z,77.97
2022-10-02T06:44:32.064Z,78.05
2022-10-02T06:47:16.630Z,78.21
2022-10-02T06:50:04.522Z,77.02
2022-10-02T06:52:39.567Z,76.58
2022-10-02T06:55:33.284Z,76.15
2022-10-02T06:58:14.609Z,76.89
2022-10-02T07:00:53.300Z,76.26
2022-10-02T07:04:04.279Z,75.86
2022-10-02T07:06:42.737Z,76.06
2022-10-02T07:09:36.896Z,75.87
2022-10-02T07:12:20.087Z,75.30
2022-10-02T07:15:04.025Z,74.56
2022-10-02T07:17:43.924Z,75.08
2022-10-02T07:20:31.058Z,74.67
2022-10-02T07:23:25.365Z,73.94
2022-10-02T07:26:07.256Z,73.12
2022-10-02T07:28:42.343Z,73.11
2022-10-02T07:31:23.313Z,73.02
2022-10-02T07:34:13.244Z,72.91
2022-10-02T07:36:50.311Z,72.80
2022-10-02T07:39:33.256Z,73.30
2022-10-02T07:42:20.209Z,73.00
2022-10-02T07:45:20.149Z,72.82
2022-10-02T07:48:06.438Z,72.99
2022-10-02T07:50:44.483Z,73.22
2022-10-02T07:53:22.156Z,71.15
2022-10-02T07:55:54.198Z,73.28
2022-10-02T07:58:33.663Z,71.74
2022-10-02T08:01:14.609Z,71.68
2022-10-02T08:03:51.548Z,71.29
2022-10-02T08:06:21.243Z,70.63
2022-10-02T08:08:53.594Z,69.94
2022-10-02T08:11:30.463Z,69.35
2022-10-02T08:14:03.563Z,68.38
2022-10-02T08:16:38.027Z,69.51
2022-10-02T08:19:17.189Z,69.33
2022-10-02T08:22:20.568Z,69.58
2022-10-02T08:24:53.458Z,67.39
2022-10-02T08:27:53.187Z,69.21
2022-10-02T08:30:26.476Z,68.93
2022-10-02T08:32:58.631Z,71.67
2022-10-02T08:35:37.027Z,70.27
2022-10-02T08:38:20.565Z,70.49
2022-10-02T08:41:23.154Z,68.51
2022-10-02T08:44:24.885Z,69.60
2022-10-02T08:47:18.781Z,69.50
2022-10-02T08:50:21.233Z,68.90
2022-10-02T08:53:19.092Z,67.50
2022-10-02T08:56:04.313Z,67.85
2022-10-02T08:59:21.356Z,67.24
2022-10-02T09:02:40.831Z,66.55
2022-10-02T09:05:42.347Z,65.57
2022-10-02T09:08:46.433Z,65.81
2022-10-02T09:11:39.660Z,66.44
2022-10-02T09:15:10.117Z,66.29
2022-10-02T09:17:50.544Z,65.16
2022-10-02T09:21:11.916Z,65.20
2022-10-02T09:24:17.453Z,64.05
2022-10-02T09:27:15.273Z,63.60
2022-10-02T09:30:02.302Z,64.19
2022-10-02T09:33:17.201Z,63.10
2022-10-02T09:36:13.158Z,62.04
2022-10-02T09:39:18.901Z,61.29
2022-10-02T09:42:36.919Z,63.01
2022-10-02T09:45:39.042Z,63.24
2022-10-02T09:48:47.781Z,63.10
2022-10-02T09:51:56.895Z,60.79
2022-10-02T09:54:58.779Z,59.65
2022-10-02T09:58:01.377Z,60.50
2022-10-02T10:01:02.321Z,58.89
2022-10-02T10:04:02.177Z,58.88
2022-10-02T10:06:57.692Z,59.74
2022-10-02T10:09:53.212Z,58.46
2022-10-02T10:12:54.021Z,60.83
2022-10-02T10:15:51.648Z,60.10
2022-10-02T10:19:02.510Z,60.61
2022-10-02T10:22:15.073Z,61.80
2022-10-02T10:25:11.550Z,61.88
2022-10-02T10:28:18.725Z,62.49
2022-10-02T10:31:28.320Z,63.30
2022-10-02T10:34:15.293Z,61.66
2022-10-02T10:37:12.645Z,62.31
2022-10-02T10:40:25.495Z,62.06
2022-10-02T10:43:17.426Z,62.52
2022-10-02T10:46:12.389Z,62.53
2022-10-02T10:49:11.811Z,63.28
2022-10-02T10:51:50.084Z,62.65
2022-10-02T10:54:48.637Z,62.19
2022-10-02T10:57:36.942Z,62.78
2022-10-02T11:00:23.650Z,62.74
2022-10-02T11:03:23.921Z,62.45
2022-10-02T11:06:27.150Z,62.81
2022-10-02T11:09:31.753Z,63.97
2022-10-02T11:12:25.264Z,62.40
2022-10-02T11:15:09.972Z,64.53
2022-10-02T11:17:56.517Z,62.61
2022-10-02T11:20:45.246Z,63.68
2022-10-02T11:23:43.435Z,64.14
2022-10-02T11:26:37.505Z,63.98
2022-10-02T11:29:43.331Z,64.22
2022-10-02T11:32:38.267Z,64.85
2022-10-02T11:35:48.370Z,64.47
2022-10-02T11:38:58.796Z,65.13
2022-10-02T11:41:46.848Z,66.28
2022-10-02T11:44:28.128Z,67.18
2022-10-02T11:47:19.542Z,66.31
2022-10-02T11:50:14.203Z,67.10
2022-10-02T11:53:11.366Z,65.21
2022-10-02T11:55:53.572Z,66.94
2022-10-02T11:58:42.023Z,66.41
2022-10-02T12:01:18.374Z,65.93
2022-10-02T12:03:58.591Z,66.51
2022-10-02T12:06:47.532Z,66.15
2022-10-02T12:09:28.859Z,67.36
2022-10-02T12:12:08.510Z,66.89
2022-10-02T12:14:45.714Z,68.50
2022-10-02T12:17:46.336Z,69.17
2022-10-02T12:20:45.110Z,69.06
2022-10-02T12:27:44.604Z,70.64
2022-10-02T12:34:46.344Z,71.23
2022-10-02T12:41:50.594Z,71.03
2022-10-02T12:45:28.568Z,71.58
2022-10-02T12:48:26.423Z,71.88
2022-10-02T12:55:48.991Z,71.81
2022-10-02T13:03:19.416Z,72.41
2022-10-02T13:06:37.132Z,71.20
2022-10-02T13:09:29.944Z,70.26
2022-10-02T13:12:15.813Z,70.43
2022-10-02T13:15:25.134Z,70.13
2022-10-02T13:18:03.811Z,71.18
2022-10-02T13:20:40.011Z,70.96
2022-10-02T13:23:26.812Z,70.77
2022-10-02T13:26:03.289Z,70.68
2022-10-02T13:28:51.545Z,70.96
2022-10-02T13:31:36.710Z,71.42
2022-10-02T13:34:25.545Z,71.04
2022-10-02T13:37:08.782Z,72.12
2022-10-02T13:39:51.309Z,72.39
2022-10-02T13:42:32.951Z,72.47
2022-10-02T13:45:16.003Z,72.42
2022-10-02T13:47:50.940Z,72.57
2022-10-02T13:50:31.116Z,72.59
2022-10-02T13:53:32.476Z,72.70
2022-10-02T13:56:14.672Z,71.28
2022-10-02T13:58:58.272Z,71.18
2022-10-02T14:01:36.624Z,71.22
2022-10-02T14:04:21.064Z,70.73
2022-10-02T14:07:05.974Z,70.98
2022-10-02T14:10:07.878Z,70.79
2022-10-02T14:12:51.436Z,70.68
2022-10-02T14:15:43.691Z,71.51
2022-10-02T14:18:30.647Z,72.03
2022-10-02T14:21:10.285Z,72.48
2022-10-02T14:24:04.586Z,73.59
2022-10-02T14:26:49.456Z,72.46
2022-10-02T14:29:45.900Z,72.76
2022-10-02T14:32:50.033Z,73.71
2022-10-02T14:35:44.295Z,73.39
2022-10-02T14:38:37.139Z,73.55
2022-10-02T14:41:24.708Z,73.95
2022-10-02T14:44:28.735Z,74.22
2022-10-02T14:47:15.251Z,74.47
2022-10-02T14:50:05.800Z,74.99
2022-10-02T14:52:49.302Z,75.17
2022-10-02T14:55:38.942Z,75.37
2022-10-02T14:58:31.596Z,75.81
2022-10-02T15:01:21.469Z,76.32
2022-10-02T15:04:15.780Z,76.45
2022-10-02T15:07:00.185Z,77.16
2022-10-02T15:09:36.661Z,77.54
2022-10-02T15:12:14.861Z,78.03
2022-10-02T15:14:56.041Z,78.21
2022-10-02T15:17:53.697Z,78.59
2022-10-02T15:20:27.579Z,79.10
2022-10-02T15:23:00.801Z,79.35
2022-10-02T15:26:10.629Z,79.53
2022-10-02T15:28:50.940Z,79.99
2022-10-02T15:31:27.651Z,80.23
2022-10-02T15:34:03.858Z,80.00
2022-10-02T15:37:00.804Z,80.34
2022-10-02T15:40:03.509Z,80.55
2022-10-02T15:42:50.134Z,80.68
2022-10-02T15:45:33.631Z,81.33
2022-10-02T15:48:22.498Z,81.19
2022-10-02T15:50:59.698Z,80.74
2022-10-02T15:53:37.157Z,80.52
2022-10-02T15:56:26.033Z,80.78
2022-10-02T15:59:11.794Z,80.34
2022-10-02T16:01:53.348Z,80.26
2022-10-02T16:04:30.717Z,80.54
2022-10-02T16:07:26.301Z,80.25
2022-10-02T16:10:08.873Z,80.08
2022-10-02T16:12:48.994Z,80.18
2022-10-02T16:15:24.096Z,80.22
2022-10-02T16:18:13.970Z,80.49
2022-10-02T16:20:58.604Z,80.07
2022-10-02T16:23:47.650Z,80.32
2022-10-02T16:26:29.622Z,80.38
2022-10-02T16:29:14.509Z,80.58
2022-10-02T16:31:59.270Z,80.71
2022-10-02T16:34:42.697Z,81.10
2022-10-02T16:37:26.324Z,80.78
2022-10-02T16:40:01.077Z,80.95
2022-10-02T16:42:40.200Z,81.58
2022-10-02T16:45:37.317Z,81.39
2022-10-02T16:48:12.200Z,81.63
2022-10-02T16:50:54.368Z,82.02
2022-10-02T16:53:26.453Z,82.18
2022-10-02T16:56:06.394Z,82.06
2022-10-02T16:58:44.359Z,81.97
2022-10-02T17:01:28.921Z,82.16
2022-10-02T17:04:18.867Z,82.46
2022-10-02T17:06:53.628Z,82.02
2022-10-02T17:09:32.108Z,81.87
2022-10-02T17:12:08.020Z,82.34
2022-10-02T17:14:45.038Z,82.26
2022-10-02T17:17:23.031Z,82.05
2022-10-02T17:19:54.653Z,82.23
2022-10-02T17:22:30.367Z,82.20
2022-10-02T17:25:08.356Z,82.69
2022-10-02T17:27:45.867Z,82.51
2022-10-02T17:30:23.923Z,82.27
2022-10-02T17:33:06.997Z,82.29
2022-10-02T17:35:41.247Z,81.84
2022-10-02T17:38:45.750Z,82.21
2022-10-02T17:41:32.114Z,82.00
2022-10-02T17:44:09.840Z,82.00
2022-10-02T17:47:07.032Z,82.17
2022-10-02T17:49:51.916Z,82.19
2022-10-02T17:52:46.204Z,81.66
2022-10-02T17:55:57.275Z,82.04
2022-10-02T17:58:35.701Z,82.08
2022-10-02T18:01:13.154Z,81.51
2022-10-02T18:03:51.553Z,81.37
2022-10-02T18:06:25.690Z,81.71
2022-10-02T18:09:14.387Z,81.87
2022-10-02T18:12:01.506Z,81.66
2022-10-02T18:14:51.597Z,81.79
2022-10-02T18:17:27.126Z,81.28
2022-10-02T18:20:03.924Z,81.34
2022-10-02T18:23:05.432Z,81.46
2022-10-02T18:25:45.687Z,81.88
2022-10-02T18:28:30.781Z,81.67
2022-10-02T18:31:14.996Z,81.87
2022-10-02T18:34:06.538Z,81.16
2022-10-02T18:36:56.551Z,81.67
2022-10-02T18:39:33.805Z,81.77
2022-10-02T18:42:30.361Z,81.66
2022-10-02T18:45:07.731Z,81.27
2022-10-02T18:47:45.948Z,81.68
2022-10-02T18:50:39.815Z,82.41
2022-10-02T18:53:29.413Z,81.97
2022-10-02T18:56:07.386Z,82.24
2022-10-02T18:58:55.741Z,81.63
2022-10-02T19:01:47.939Z,81.71
2022-10-02T19:04:48.696Z,81.45
2022-10-02T19:07:22.250Z,81.58
2022-10-02T19:10:10.594Z,81.50
2022-10-02T19:12:44.775Z,82.15
2022-10-02T19:15:22.774Z,81.81
2022-10-02T19:18:02.148Z,81.61
2022-10-02T19:20:37.460Z,82.74
2022-10-02T19:23:08.845Z,81.72
2022-10-02T19:25:37.583Z,81.32
2022-10-02T19:28:06.676Z,81.53
2022-10-02T19:30:36.272Z,81.69
2022-10-02T19:33:09.712Z,82.21
2022-10-02T19:35:43.567Z,81.45
2022-10-02T19:38:25.326Z,81.67
2022-10-02T19:40:59.415Z,81.50
2022-10-02T19:43:36.892Z,81.38
2022-10-02T19:46:10.560Z,81.14
2022-10-02T19:48:40.258Z,81.19
2022-10-02T19:51:17.177Z,81.09
2022-10-02T19:53:53.561Z,80.62
2022-10-02T19:56:28.523Z,80.74
2022-10-02T19:59:01.938Z,80.26
2022-10-02T20:01:37.420Z,80.10
2022-10-02T20:04:06.395Z,80.05
2022-10-02T20:06:37.837Z,80.64
2022-10-02T20:09:17.682Z,81.22
2022-10-02T20:11:49.088Z,80.76
2022-10-02T20:14:21.663Z,80.99
2022-10-02T20:17:07.868Z,81.32
2022-10-02T20:19:38.782Z,81.35
2022-10-02T20:22:14.562Z,81.78
2022-10-02T20:24:51.473Z,81.94
2022-10-02T20:27:26.056Z,81.96
2022-10-02T20:29:56.929Z,82.26
2022-10-02T20:32:31.159Z,82.59
2022-10-02T20:35:05.318Z,82.49
2022-10-02T20:37:36.565Z,82.47
2022-10-02T20:40:11.380Z,82.62
2022-10-02T20:42:47.631Z,82.84
2022-10-02T20:45:17.033Z,83.44
2022-10-02T20:48:18.561Z,83.84
2022-10-02T20:50:59.181Z,83.60
2022-10-02T20:54:12.716Z,84.03
2022-10-02T20:57:15.090Z,83.85
2022-10-02T21:00:12.302Z,83.66
2022-10-02T21:03:02.792Z,83.70
2022-10-02T21:06:12.940Z,83.83
2022-10-02T21:09:09.705Z,83.02
2022-10-02T21:11:46.380Z,83.00
2022-10-02T21:14:48.086Z,82.79
2022-10-02T21:17:48.856Z,82.83
2022-10-02T21:20:51.552Z,82.45
2022-10-02T21:23:53.746Z,82.55
2022-10-02T21:26:57.546Z,82.65
2022-10-02T21:29:49.081Z,82.34
2022-10-02T21:32:34.577Z,82.93
2022-10-02T21:35:16.852Z,83.11
2022-10-02T21:38:05.258Z,83.26
2022-10-02T21:41:21.179Z,83.28
2022-10-02T21:44:33.813Z,83.04
2022-10-02T21:47:27.966Z,82.99
2022-10-02T21:50:31.757Z,83.34
2022-10-02T21:53:36.505Z,83.35
2022-10-02T21:56:46.131Z,83.23
2022-10-02T21:59:44.325Z,83.77
2022-10-02T22:02:41.035Z,83.42
2022-10-02T22:05:22.986Z,83.60
2022-10-02T22:07:56.541Z,83.67
2022-10-02T22:10:31.363Z,83.68
2022-10-02T22:13:18.312Z,83.56
2022-10-02T22:15:54.065Z,83.37
2022-10-02T22:18:29.901Z,83.25
2022-10-02T22:21:14.486Z,83.52
2022-10-02T22:23:56.111Z,83.46
2022-10-02T22:26:40.091Z,83.29
2022-10-02T22:29:16.208Z,83.20
2022-10-02T22:32:21.497Z,83.07
2022-10-02T22:34:55.654Z,82.68
2022-10-02T22:37:51.314Z,82.95
2022-10-02T22:40:23.645Z,83.19
2022-10-02T22:42:58.115Z,83.41
2022-10-02T22:45:35.328Z,83.58
2022-10-02T22:48:08.431Z,83.40
2022-10-02T22:50:44.688Z,83.28
2022-10-02T22:53:19.136Z,83.45
2022-10-02T22:55:51.496Z,83.39
2022-10-02T22:58:24.990Z,83.42
2022-10-02T23:01:01.556Z,83.39
2022-10-02T23:03:37.957Z,83.25
2022-10-02T23:06:12.513Z,83.47
2022-10-02T23:08:48.652Z,83.31
2022-10-02T23:11:20.361Z,83.14
2022-10-02T23:13:54.273Z,83.75
2022-10-02T23:16:29.396Z,83.70
2022-10-02T23:19:01.866Z,83.60
2022-10-02T23:21:44.588Z,83.38
2022-10-02T23:24:25.112Z,83.83
2022-10-02T23:26:55.947Z,83.74
2022-10-02T23:29:35.452Z,83.69
2022-10-02T23:32:19.156Z,83.81
2022-10-02T23:34:54.900Z,84.04
2022-10-02T23:37:27.577Z,83.83
2022-10-02T23:40:00.453Z,84.24
2022-10-02T23:42:35.156Z,84.01
2022-10-02T23:45:08.578Z,84.32
2022-10-02T23:47:51.133Z,83.89
2022-10-02T23:50:25.107Z,84.18
2022-10-02T23:53:06.730Z,84.20
2022-10-02T23:56:00.509Z,83.95
2022-10-02T23:58:44.190Z,84.13
